Time;durP1;ratioP1;P1;durP2;ratioP2;P2;SDS_P1;SDS_P2;PMS_P1;PMS_P2;Temp;Humidity;BMP_temperature;BMP_pressure;BME280_temperature;BME280_humidity;BME280_pressure;Samples;Min_cycle;Max_cycle;Signal;HPM_P1;HPM_P2
2023/07/17 00:00:15;;;;;;;7.07;4.30;;;;;;;;;;625187;23;1256;-77
2023/07/17 00:00:40;;;;;;;7.30;4.15;;;;;;;;;;628944;23;1263;-76
2023/07/17 00:00:55;;;;;;;7.20;4.10;;;;;;;;;;627647;23;1956;-76
2023/07/17 00:01:10;;;;;;;6.87;4.30;;;;;;;;;;628204;23;1291;-76
2023/07/17 00:01:29;;;;;;;6.37;4.23;;;;;;;;;;627763;23;998;-76
2023/07/17 00:01:47;;;;;;;5.78;4.10;;;;;;;;;;624791;23;1338;-77
2023/07/17 00:02:02;;;;;;;5.68;4.10;;;;;;;;;;623719;23;1250;-76
2023/07/17 00:02:18;;;;;;;7.20;4.03;;;;;;;;;;620452;23;1236;-76
2023/07/17 00:02:34;;;;;;;7.32;4.03;;;;;;;;;;620204;23;1396;-75
2023/07/17 00:02:49;;;;;;;5.72;3.90;;;;;;;;;;622549;23;1305;-76
2023/07/17 00:03:05;;;;;;;7.00;3.90;;;;;;;;;;623499;23;1216;-76
2023/07/17 00:03:20;;;;;;;7.05;4.00;;;;;;;;;;625480;23;1192;-76
2023/07/17 00:03:36;;;;;;;6.07;4.20;;;;;;;;;;624757;23;1283;-77
2023/07/17 00:03:51;;;;;;;5.85;4.05;;;;;;;;;;626241;23;1203;-76
2023/07/17 00:04:07;;;;;;;5.40;3.80;;;;;;;;;;628072;23;1172;-76
2023/07/17 00:04:22;;;;;;;5.53;3.70;;;;;;;;;;625260;23;1275;-76
2023/07/17 00:04:37;;;;;;;5.30;3.70;;;;;;;;;;628559;23;1172;-77
2023/07/17 00:04:52;;;;;;;5.67;3.90;;;;;;;;;;623472;23;1272;-77
2023/07/17 00:05:10;;;;;;;6.50;4.10;;;;;;;;;;628204;23;1348;-76
2023/07/17 00:05:25;;;;;;;7.80;4.40;;;;;;;;;;628401;23;863;-76
2023/07/17 00:05:41;;;;;;;7.23;4.20;;;;;;;;;;626219;23;1322;-76
2023/07/17 00:05:57;;;;;;;6.43;4.00;;;;;;;;;;623303;23;1207;-76
2023/07/17 00:06:13;;;;;;;7.22;4.20;;;;;;;;;;625491;23;1569;-76
2023/07/17 00:06:28;;;;;;;8.90;4.40;;;;;;;;;;624712;23;835;-77
2023/07/17 00:06:43;;;;;;;7.38;4.28;;;;;;;;;;625965;23;831;-77
2023/07/17 00:06:59;;;;;;;6.87;4.03;;;;;;;;;;626326;23;1065;-77
2023/07/17 00:07:14;;;;;;;7.63;4.20;;;;;;;;;;624875;23;993;-77
2023/07/17 00:07:30;;;;;;;6.53;4.23;;;;;;;;;;625461;23;1286;-77
2023/07/17 00:07:45;;;;;;;6.93;4.30;;;;;;;;;;625206;23;1152;-77
2023/07/17 00:08:01;;;;;;;7.07;4.20;;;;;;;;;;625648;23;1191;-76
2023/07/17 00:08:16;;;;;;;6.40;4.30;;;;;;;;;;624906;23;1251;-77
2023/07/17 00:08:34;;;;;;;6.00;4.10;;;;;;;;;;626435;23;955;-77
2023/07/17 00:08:49;;;;;;;5.47;3.80;;;;;;;;;;626986;23;1121;-77
2023/07/17 00:09:05;;;;;;;5.30;4.03;;;;;;;;;;627897;23;1295;-77
2023/07/17 00:09:20;;;;;;;7.25;4.20;;;;;;;;;;627978;23;1350;-77
2023/07/17 00:09:43;;;;;;;8.63;4.20;;;;;;;;;;629405;23;832;-77
2023/07/17 00:09:58;;;;;;;6.60;3.95;;;;;;;;;;631996;23;886;-77
2023/07/17 00:10:14;;;;;;;5.37;3.90;;;;;;;;;;628257;23;991;-76
2023/07/17 00:10:32;;;;;;;6.30;3.88;;;;;;;;;;629507;23;1070;-77
2023/07/17 00:10:48;;;;;;;7.40;4.05;;;;;;;;;;625951;23;1305;-76
2023/07/17 00:11:03;;;;;;;7.90;4.07;;;;;;;;;;626014;23;1237;-77
2023/07/17 00:11:19;;;;;;;8.67;4.20;;;;;;;;;;625028;23;1299;-78
2023/07/17 00:11:34;;;;;;;8.73;4.40;;;;;;;;;;625271;23;977;-77
2023/07/17 00:11:50;;;;;;;7.57;4.25;;;;;;;;;;626782;23;863;-77
2023/07/17 00:12:05;;;;;;;6.97;4.30;;;;;;;;;;621827;23;1133;-77
2023/07/17 00:12:22;;;;;;;6.40;4.40;;;;;;;;;;623256;23;886;-77
2023/07/17 00:12:38;;;;;;;5.82;4.20;;;;;;;;;;622734;23;1490;-77
2023/07/17 00:12:53;;;;;;;5.70;4.05;;;;;;;;;;626167;23;890;-77
2023/07/17 00:13:08;;;;;;;5.65;4.07;;;;;;;;;;626139;23;1319;-78
2023/07/17 00:13:24;;;;;;;6.97;4.20;;;;;;;;;;627726;23;891;-77
2023/07/17 00:13:40;;;;;;;8.32;4.13;;;;;;;;;;629166;23;1343;-76
2023/07/17 00:13:55;;;;;;;8.43;4.15;;;;;;;;;;626264;23;1369;-76
2023/07/17 00:14:11;;;;;;;7.07;4.23;;;;;;;;;;629134;23;778;-77
2023/07/17 00:14:26;;;;;;;6.70;4.17;;;;;;;;;;628935;23;1167;-76
2023/07/17 00:14:42;;;;;;;6.93;4.10;;;;;;;;;;625373;23;1340;-77
2023/07/17 00:14:58;;;;;;;7.25;4.13;;;;;;;;;;625484;23;1410;-76
2023/07/17 00:15:13;;;;;;;7.10;4.30;;;;;;;;;;625314;23;1146;-76
2023/07/17 00:15:28;;;;;;;6.18;4.20;;;;;;;;;;627545;23;1195;-77
2023/07/17 00:15:44;;;;;;;5.80;4.10;;;;;;;;;;626022;23;1248;-77
2023/07/17 00:15:59;;;;;;;7.33;4.17;;;;;;;;;;621925;23;1306;-77
2023/07/17 00:16:19;;;;;;;7.47;4.13;;;;;;;;;;622652;23;1229;-77
2023/07/17 00:16:35;;;;;;;6.95;4.25;;;;;;;;;;626945;23;1410;-76
2023/07/17 00:16:50;;;;;;;7.37;4.30;;;;;;;;;;625952;23;1478;-77
2023/07/17 00:17:05;;;;;;;8.40;4.43;;;;;;;;;;628831;23;1357;-77
2023/07/17 00:17:21;;;;;;;7.07;4.40;;;;;;;;;;628078;23;918;-76
2023/07/17 00:17:38;;;;;;;6.20;4.22;;;;;;;;;;628915;23;997;-77
2023/07/17 00:17:53;;;;;;;8.40;4.20;;;;;;;;;;628491;23;907;-77
2023/07/17 00:18:09;;;;;;;9.73;4.10;;;;;;;;;;629113;23;1190;-77
2023/07/17 00:18:24;;;;;;;9.10;4.30;;;;;;;;;;628829;23;1285;-77
2023/07/17 00:18:40;;;;;;;7.35;4.32;;;;;;;;;;624224;23;1308;-77
2023/07/17 00:18:56;;;;;;;6.20;4.35;;;;;;;;;;623536;23;1378;-77
2023/07/17 00:19:11;;;;;;;6.63;4.27;;;;;;;;;;622429;23;1335;-77
2023/07/17 00:19:27;;;;;;;6.15;4.20;;;;;;;;;;623540;23;966;-77
2023/07/17 00:19:54;;;;;;;6.23;4.30;;;;;;;;;;622257;23;1116;-77
2023/07/17 00:20:11;;;;;;;6.05;4.00;;;;;;;;;;622993;23;1412;-77
2023/07/17 00:20:27;;;;;;;6.68;4.20;;;;;;;;;;624577;23;1348;-77
2023/07/17 00:20:43;;;;;;;7.80;4.20;;;;;;;;;;623378;23;1196;-76
2023/07/17 00:20:58;;;;;;;6.33;4.00;;;;;;;;;;621917;23;1897;-76
2023/07/17 00:21:14;;;;;;;6.93;4.20;;;;;;;;;;624700;23;1231;-76
2023/07/17 00:21:30;;;;;;;8.23;4.30;;;;;;;;;;625729;23;1549;-76
2023/07/17 00:21:46;;;;;;;7.43;4.40;;;;;;;;;;629787;23;1407;-77
2023/07/17 00:22:01;;;;;;;6.57;4.37;;;;;;;;;;632907;23;1077;-77
2023/07/17 00:22:18;;;;;;;6.78;4.03;;;;;;;;;;631690;23;1347;-76
2023/07/17 00:22:34;;;;;;;7.40;4.05;;;;;;;;;;624539;23;1315;-76
2023/07/17 00:22:50;;;;;;;7.50;4.18;;;;;;;;;;629205;23;1246;-74
2023/07/17 00:23:05;;;;;;;7.67;4.00;;;;;;;;;;628707;23;1230;-74
2023/07/17 00:23:21;;;;;;;7.80;4.10;;;;;;;;;;628355;23;792;-74
2023/07/17 00:23:36;;;;;;;7.73;4.10;;;;;;;;;;629039;23;941;-76
2023/07/17 00:23:51;;;;;;;6.40;3.80;;;;;;;;;;625115;23;1242;-77
2023/07/17 00:24:07;;;;;;;6.63;3.88;;;;;;;;;;625559;23;1340;-77
2023/07/17 00:24:22;;;;;;;7.80;4.20;;;;;;;;;;626094;23;1232;-76
2023/07/17 00:24:38;;;;;;;8.88;4.40;;;;;;;;;;625254;23;1212;-77
2023/07/17 00:24:54;;;;;;;7.47;4.23;;;;;;;;;;627262;23;1321;-76
2023/07/17 00:25:35;;;;;;;5.43;4.03;;;;;;;;;;625972;23;1299;-77
2023/07/17 00:25:51;;;;;;;9.48;4.22;;;;;;;;;;629366;23;1235;-77
2023/07/17 00:26:06;;;;;;;8.00;4.30;;;;;;;;;;624560;23;1283;-78
2023/07/17 00:26:42;;;;;;;7.17;4.27;;;;;;;;;;628174;23;812;-77
2023/07/17 00:26:57;;;;;;;5.55;4.00;;;;;;;;;;627954;23;1295;-77
2023/07/17 00:27:12;;;;;;;7.00;4.07;;;;;;;;;;624176;23;1134;-77
2023/07/17 00:27:28;;;;;;;7.63;4.30;;;;;;;;;;626554;23;1224;-76
2023/07/17 00:27:44;;;;;;;6.77;4.17;;;;;;;;;;626477;23;1449;-77
2023/07/17 00:27:59;;;;;;;5.65;4.03;;;;;;;;;;626798;23;1219;-77
2023/07/17 00:28:15;;;;;;;5.35;4.00;;;;;;;;;;628115;23;891;-77
2023/07/17 00:28:31;;;;;;;5.43;4.07;;;;;;;;;;624130;23;1218;-77
2023/07/17 00:28:46;;;;;;;5.85;3.92;;;;;;;;;;626860;23;860;-76
2023/07/17 00:29:25;;;;;;;5.95;4.00;;;;;;;;;;628558;23;836;-77
2023/07/17 00:29:43;;;;;;;6.53;4.10;;;;;;;;;;632517;23;875;-76
2023/07/17 00:29:59;;;;;;;4.95;3.80;;;;;;;;;;631385;23;1493;-76
2023/07/17 00:30:15;;;;;;;5.53;4.03;;;;;;;;;;631700;23;811;-77
2023/07/17 00:30:30;;;;;;;5.70;4.07;;;;;;;;;;632476;23;1050;-77
2023/07/17 00:30:47;;;;;;;5.63;3.90;;;;;;;;;;629551;23;1228;-76
2023/07/17 00:31:03;;;;;;;6.75;4.13;;;;;;;;;;624747;23;1298;-77
2023/07/17 00:31:19;;;;;;;6.40;4.10;;;;;;;;;;624477;23;1271;-78
2023/07/17 00:31:34;;;;;;;6.23;4.10;;;;;;;;;;626611;23;880;-76
2023/07/17 00:31:51;;;;;;;7.50;4.40;;;;;;;;;;624196;23;1383;-76
2023/07/17 00:32:06;;;;;;;6.78;4.28;;;;;;;;;;626022;23;1408;-77
2023/07/17 00:32:22;;;;;;;6.20;4.40;;;;;;;;;;628188;23;1286;-78
2023/07/17 00:32:38;;;;;;;6.73;4.43;;;;;;;;;;628538;23;1301;-77
2023/07/17 00:32:53;;;;;;;7.15;4.30;;;;;;;;;;629194;23;1191;-77
2023/07/17 00:33:09;;;;;;;7.82;4.30;;;;;;;;;;628184;23;796;-76
2023/07/17 00:33:25;;;;;;;7.37;4.27;;;;;;;;;;629033;23;803;-77
2023/07/17 00:33:40;;;;;;;6.45;4.10;;;;;;;;;;630608;23;1098;-77
2023/07/17 00:33:58;;;;;;;6.85;4.10;;;;;;;;;;628912;23;1344;-77
2023/07/17 00:34:14;;;;;;;6.32;4.03;;;;;;;;;;625964;23;1172;-77
2023/07/17 00:34:32;;;;;;;6.20;3.90;;;;;;;;;;625948;23;1143;-78
2023/07/17 00:34:48;;;;;;;6.40;4.05;;;;;;;;;;624591;23;1255;-77
2023/07/17 00:35:03;;;;;;;6.20;4.30;;;;;;;;;;625801;23;1188;-77
2023/07/17 00:35:19;;;;;;;6.47;4.18;;;;;;;;;;624944;23;1091;-77
2023/07/17 00:35:35;;;;;;;6.30;3.80;;;;;;;;;;626430;23;843;-77
2023/07/17 00:35:50;;;;;;;5.80;3.95;;;;;;;;;;626933;23;1390;-76
2023/07/17 00:36:05;;;;;;;5.57;4.00;;;;;;;;;;627309;23;1266;-77
2023/07/17 00:36:21;;;;;;;5.18;3.72;;;;;;;;;;626801;23;1287;-77
2023/07/17 00:36:36;;;;;;;5.83;4.00;;;;;;;;;;629181;23;883;-76
2023/07/17 00:36:52;;;;;;;6.65;4.35;;;;;;;;;;627458;23;1297;-77
2023/07/17 00:37:08;;;;;;;7.65;4.55;;;;;;;;;;628169;23;1488;-76
2023/07/17 00:37:27;;;;;;;6.78;4.28;;;;;;;;;;627691;23;1370;-77
2023/07/17 00:37:42;;;;;;;4.55;3.60;;;;;;;;;;628069;23;1139;-77
2023/07/17 00:37:58;;;;;;;4.93;3.70;;;;;;;;;;624111;23;1313;-76
2023/07/17 00:38:13;;;;;;;6.30;4.23;;;;;;;;;;624011;23;911;-77
2023/07/17 00:38:29;;;;;;;6.32;4.53;;;;;;;;;;623037;23;1264;-77
2023/07/17 00:38:44;;;;;;;5.60;4.23;;;;;;;;;;622071;23;896;-76
2023/07/17 00:38:59;;;;;;;4.93;3.87;;;;;;;;;;624106;23;1133;-76
2023/07/17 00:39:15;;;;;;;7.60;4.23;;;;;;;;;;622382;23;1274;-76
2023/07/17 00:39:30;;;;;;;8.57;4.43;;;;;;;;;;625843;23;1275;-77
2023/07/17 00:39:46;;;;;;;7.25;4.32;;;;;;;;;;628323;23;1382;-77
2023/07/17 00:40:01;;;;;;;7.20;4.20;;;;;;;;;;628531;23;783;-77
2023/07/17 00:40:16;;;;;;;5.73;3.93;;;;;;;;;;628305;23;899;-77
2023/07/17 00:40:32;;;;;;;6.78;4.07;;;;;;;;;;630275;23;1322;-77
2023/07/17 00:40:47;;;;;;;7.53;4.13;;;;;;;;;;624664;23;1208;-77
2023/07/17 00:41:03;;;;;;;6.47;4.20;;;;;;;;;;627952;23;1913;-77
2023/07/17 00:41:18;;;;;;;7.13;4.30;;;;;;;;;;627473;23;1288;-77
2023/07/17 00:41:36;;;;;;;7.30;4.40;;;;;;;;;;625950;23;1113;-76
2023/07/17 00:41:51;;;;;;;6.78;4.18;;;;;;;;;;626078;23;993;-76
2023/07/17 00:42:07;;;;;;;6.87;4.07;;;;;;;;;;625850;23;1322;-77
2023/07/17 00:42:22;;;;;;;6.53;4.13;;;;;;;;;;626033;23;1032;-77
2023/07/17 00:42:38;;;;;;;6.13;4.17;;;;;;;;;;629993;23;1212;-77
2023/07/17 00:43:01;;;;;;;7.40;4.30;;;;;;;;;;629362;23;815;-77
2023/07/17 00:43:16;;;;;;;5.88;4.07;;;;;;;;;;628435;23;963;-77
2023/07/17 00:43:31;;;;;;;5.37;4.10;;;;;;;;;;630922;23;777;-77
2023/07/17 00:43:47;;;;;;;5.90;3.90;;;;;;;;;;628305;23;1343;-76
2023/07/17 00:44:03;;;;;;;5.97;3.97;;;;;;;;;;632012;23;1267;-77
2023/07/17 00:44:18;;;;;;;5.38;4.03;;;;;;;;;;630371;23;831;-77
2023/07/17 00:44:35;;;;;;;5.80;4.20;;;;;;;;;;632390;23;1372;-77
2023/07/17 00:44:51;;;;;;;5.75;4.18;;;;;;;;;;630888;23;1295;-77
2023/07/17 00:45:06;;;;;;;6.07;4.00;;;;;;;;;;631113;23;819;-77
2023/07/17 00:45:22;;;;;;;6.70;4.20;;;;;;;;;;631768;23;1402;-77
2023/07/17 00:45:43;;;;;;;6.38;4.25;;;;;;;;;;633692;23;1223;-76
2023/07/17 00:45:59;;;;;;;6.20;4.22;;;;;;;;;;631989;23;1349;-77
2023/07/17 00:46:15;;;;;;;6.00;4.20;;;;;;;;;;625745;23;1180;-77
2023/07/17 00:46:34;;;;;;;6.40;4.25;;;;;;;;;;628989;23;779;-77
2023/07/17 00:46:52;;;;;;;7.00;4.10;;;;;;;;;;625796;23;1497;-77
2023/07/17 00:47:09;;;;;;;6.50;4.00;;;;;;;;;;625342;23;948;-77
2023/07/17 00:47:24;;;;;;;7.18;4.10;;;;;;;;;;622576;23;895;-77
2023/07/17 00:47:40;;;;;;;7.80;4.03;;;;;;;;;;625511;23;879;-77
2023/07/17 00:47:59;;;;;;;6.65;3.95;;;;;;;;;;628004;23;837;-77
2023/07/17 00:48:14;;;;;;;5.75;3.90;;;;;;;;;;628533;23;1212;-77
2023/07/17 00:48:30;;;;;;;5.83;3.90;;;;;;;;;;625831;23;1230;-77
2023/07/17 00:48:45;;;;;;;6.07;4.00;;;;;;;;;;627375;23;930;-77
2023/07/17 00:49:03;;;;;;;7.00;4.23;;;;;;;;;;625423;23;1221;-76
2023/07/17 00:49:22;;;;;;;7.57;4.25;;;;;;;;;;627363;23;1115;-77
2023/07/17 00:49:38;;;;;;;6.28;4.20;;;;;;;;;;629795;23;1753;-77
2023/07/17 00:49:54;;;;;;;6.57;4.10;;;;;;;;;;627782;23;1057;-77
2023/07/17 00:50:10;;;;;;;6.55;3.95;;;;;;;;;;627300;23;1321;-77
2023/07/17 00:50:27;;;;;;;5.85;3.50;;;;;;;;;;625828;23;1156;-77
2023/07/17 00:50:42;;;;;;;5.47;3.30;;;;;;;;;;626170;23;1389;-77
2023/07/17 00:50:58;;;;;;;4.33;3.63;;;;;;;;;;628270;23;1168;-77
2023/07/17 00:51:13;;;;;;;5.05;3.80;;;;;;;;;;622679;23;1382;-77
2023/07/17 00:51:30;;;;;;;5.50;3.93;;;;;;;;;;629574;23;1148;-76
2023/07/17 00:51:46;;;;;;;5.95;4.03;;;;;;;;;;626223;23;837;-77
2023/07/17 00:52:04;;;;;;;6.38;4.13;;;;;;;;;;625744;23;1149;-77
2023/07/17 00:52:19;;;;;;;6.75;4.10;;;;;;;;;;626704;23;967;-76
2023/07/17 00:52:35;;;;;;;6.73;3.90;;;;;;;;;;629353;23;1161;-77
2023/07/17 00:52:50;;;;;;;7.70;3.70;;;;;;;;;;629155;23;937;-77
2023/07/17 00:53:07;;;;;;;7.57;3.87;;;;;;;;;;626310;23;1310;-77
2023/07/17 00:53:23;;;;;;;6.90;4.07;;;;;;;;;;628024;23;831;-77
2023/07/17 00:53:39;;;;;;;6.65;4.10;;;;;;;;;;628138;23;1256;-77
2023/07/17 00:53:55;;;;;;;5.18;4.03;;;;;;;;;;624616;23;1096;-77
2023/07/17 00:54:14;;;;;;;5.45;4.30;;;;;;;;;;625216;23;844;-77
2023/07/17 00:54:32;;;;;;;5.25;4.05;;;;;;;;;;627422;23;1232;-76
2023/07/17 00:54:50;;;;;;;6.43;3.80;;;;;;;;;;626157;23;1243;-77
2023/07/17 00:55:06;;;;;;;7.00;4.10;;;;;;;;;;625316;23;832;-77
2023/07/17 00:55:25;;;;;;;6.82;4.20;;;;;;;;;;625347;23;1222;-77
2023/07/17 00:55:40;;;;;;;7.53;4.10;;;;;;;;;;626400;23;1410;-77
2023/07/17 00:55:56;;;;;;;7.07;4.10;;;;;;;;;;628780;23;1350;-77
2023/07/17 00:56:12;;;;;;;5.93;3.83;;;;;;;;;;625271;23;1356;-76
2023/07/17 00:56:28;;;;;;;5.75;3.75;;;;;;;;;;624928;23;1375;-77
2023/07/17 00:56:45;;;;;;;5.43;3.85;;;;;;;;;;628252;23;1275;-77
2023/07/17 00:57:03;;;;;;;5.68;3.92;;;;;;;;;;629744;23;1068;-77
2023/07/17 00:57:20;;;;;;;5.57;3.90;;;;;;;;;;624751;23;1339;-77
2023/07/17 00:57:55;;;;;;;5.40;3.92;;;;;;;;;;620392;23;1230;-77
2023/07/17 00:58:19;;;;;;;5.78;3.85;;;;;;;;;;624844;23;1159;-77
2023/07/17 00:58:35;;;;;;;6.10;4.00;;;;;;;;;;625438;23;1272;-76
2023/07/17 00:58:52;;;;;;;4.60;3.70;;;;;;;;;;628139;23;1069;-77
2023/07/17 00:59:08;;;;;;;5.38;3.70;;;;;;;;;;629354;23;859;-77
2023/07/17 00:59:25;;;;;;;5.65;3.53;;;;;;;;;;628610;23;1064;-76
2023/07/17 01:00:03;;;;;;;4.60;3.30;;;;;;;;;;625928;23;1354;-77
2023/07/17 01:00:20;;;;;;;5.25;3.83;;;;;;;;;;628223;23;882;-77
2023/07/17 01:00:36;;;;;;;4.68;3.65;;;;;;;;;;627757;23;1429;-77
2023/07/17 01:01:12;;;;;;;4.57;3.60;;;;;;;;;;626713;23;1275;-76
2023/07/17 01:01:28;;;;;;;5.97;3.78;;;;;;;;;;628445;23;1170;-77
2023/07/17 01:01:44;;;;;;;6.18;4.10;;;;;;;;;;629778;23;1415;-76
2023/07/17 01:01:59;;;;;;;5.27;4.03;;;;;;;;;;628584;23;791;-76
2023/07/17 01:02:15;;;;;;;5.18;3.97;;;;;;;;;;628166;23;902;-77
2023/07/17 01:02:31;;;;;;;4.65;3.90;;;;;;;;;;628396;23;1375;-77
2023/07/17 01:02:47;;;;;;;4.37;3.67;;;;;;;;;;626917;23;1383;-76
2023/07/17 01:03:03;;;;;;;5.20;3.70;;;;;;;;;;626488;23;1082;-76
2023/07/17 01:03:19;;;;;;;5.88;3.90;;;;;;;;;;625242;23;914;-77
2023/07/17 01:03:35;;;;;;;7.53;4.20;;;;;;;;;;626833;23;1325;-77
2023/07/17 01:03:55;;;;;;;8.13;4.38;;;;;;;;;;622974;23;1137;-77
2023/07/17 01:04:10;;;;;;;8.88;4.40;;;;;;;;;;621834;23;1365;-77
2023/07/17 01:04:26;;;;;;;7.30;4.20;;;;;;;;;;625933;23;1210;-77
2023/07/17 01:04:45;;;;;;;6.00;4.10;;;;;;;;;;625731;23;1136;-77
2023/07/17 01:05:01;;;;;;;6.25;4.05;;;;;;;;;;629281;23;1247;-77
2023/07/17 01:05:16;;;;;;;6.43;4.00;;;;;;;;;;623304;23;1227;-77
2023/07/17 01:05:31;;;;;;;6.43;4.10;;;;;;;;;;628939;23;1128;-77
2023/07/17 01:05:47;;;;;;;6.28;4.13;;;;;;;;;;626410;23;1319;-77
2023/07/17 01:06:03;;;;;;;5.20;4.03;;;;;;;;;;623826;23;1364;-77
2023/07/17 01:06:20;;;;;;;6.38;4.00;;;;;;;;;;622719;23;1384;-76
2023/07/17 01:06:39;;;;;;;6.57;3.90;;;;;;;;;;626823;23;1402;-77
2023/07/17 01:06:54;;;;;;;6.57;4.15;;;;;;;;;;629106;23;1244;-77
2023/07/17 01:07:10;;;;;;;7.93;4.30;;;;;;;;;;627627;23;1189;-77
2023/07/17 01:07:25;;;;;;;6.87;4.20;;;;;;;;;;632919;23;1235;-77
2023/07/17 01:07:41;;;;;;;6.22;4.07;;;;;;;;;;629239;23;1223;-76
2023/07/17 01:07:57;;;;;;;6.22;4.18;;;;;;;;;;625477;23;1338;-77
2023/07/17 01:08:12;;;;;;;7.43;4.30;;;;;;;;;;625335;23;784;-76
2023/07/17 01:08:27;;;;;;;7.87;4.30;;;;;;;;;;626215;23;983;-76
2023/07/17 01:08:43;;;;;;;5.93;4.03;;;;;;;;;;627230;23;1294;-77
2023/07/17 01:09:04;;;;;;;6.13;4.10;;;;;;;;;;626244;23;1347;-76
2023/07/17 01:09:20;;;;;;;6.05;4.05;;;;;;;;;;622095;23;1455;-77
2023/07/17 01:09:35;;;;;;;6.47;4.25;;;;;;;;;;624386;23;867;-77
2023/07/17 01:09:52;;;;;;;8.57;4.50;;;;;;;;;;626024;23;1213;-77
2023/07/17 01:10:08;;;;;;;8.23;4.43;;;;;;;;;;626196;23;918;-76
2023/07/17 01:10:24;;;;;;;6.43;4.20;;;;;;;;;;625866;23;1162;-77
2023/07/17 01:10:40;;;;;;;6.25;4.30;;;;;;;;;;626133;23;1267;-76
2023/07/17 01:10:55;;;;;;;6.97;4.40;;;;;;;;;;628395;23;792;-77
2023/07/17 01:11:12;;;;;;;7.95;4.43;;;;;;;;;;631011;23;1314;-77
2023/07/17 01:11:27;;;;;;;7.00;4.40;;;;;;;;;;630976;23;823;-77
2023/07/17 01:11:45;;;;;;;5.83;4.33;;;;;;;;;;629647;23;1254;-77
2023/07/17 01:12:01;;;;;;;5.88;4.00;;;;;;;;;;628690;23;1480;-77
2023/07/17 01:12:16;;;;;;;6.30;3.90;;;;;;;;;;627894;23;1330;-76
2023/07/17 01:12:36;;;;;;;6.63;3.97;;;;;;;;;;629977;23;1110;-76
2023/07/17 01:12:51;;;;;;;7.40;4.10;;;;;;;;;;628780;23;1100;-77
2023/07/17 01:13:10;;;;;;;7.73;4.20;;;;;;;;;;628795;23;1190;-77
2023/07/17 01:13:46;;;;;;;7.15;4.10;;;;;;;;;;629049;23;1271;-76
2023/07/17 01:14:02;;;;;;;6.47;4.28;;;;;;;;;;627922;23;1122;-77
2023/07/17 01:14:20;;;;;;;6.77;4.20;;;;;;;;;;626998;23;1144;-76
2023/07/17 01:14:36;;;;;;;8.40;4.43;;;;;;;;;;626300;23;1279;-76
2023/07/17 01:14:51;;;;;;;7.20;4.47;;;;;;;;;;629164;23;1232;-76
2023/07/17 01:15:06;;;;;;;6.87;4.27;;;;;;;;;;625535;23;1302;-77
2023/07/17 01:15:22;;;;;;;6.10;3.95;;;;;;;;;;628048;23;958;-77
2023/07/17 01:15:38;;;;;;;5.60;3.90;;;;;;;;;;626282;23;1489;-77
2023/07/17 01:15:53;;;;;;;6.78;4.05;;;;;;;;;;626266;23;1393;-77
2023/07/17 01:16:08;;;;;;;6.50;4.30;;;;;;;;;;626309;23;974;-77
2023/07/17 01:16:24;;;;;;;5.97;4.40;;;;;;;;;;622578;23;1065;-77
2023/07/17 01:16:39;;;;;;;6.87;4.17;;;;;;;;;;624260;23;1133;-76
2023/07/17 01:16:54;;;;;;;7.00;4.13;;;;;;;;;;626268;23;1324;-77
2023/07/17 01:17:10;;;;;;;6.17;4.10;;;;;;;;;;625070;23;1255;-76
2023/07/17 01:17:26;;;;;;;5.33;3.93;;;;;;;;;;625277;23;1284;-77
2023/07/17 01:17:41;;;;;;;5.28;4.15;;;;;;;;;;628526;23;1085;-77
2023/07/17 01:17:57;;;;;;;6.05;4.30;;;;;;;;;;628097;23;1120;-76
2023/07/17 01:18:13;;;;;;;7.30;4.13;;;;;;;;;;628226;23;799;-76
2023/07/17 01:18:28;;;;;;;7.47;4.10;;;;;;;;;;629376;23;842;-76
2023/07/17 01:18:44;;;;;;;5.43;4.00;;;;;;;;;;627032;23;1041;-77
2023/07/17 01:18:59;;;;;;;5.80;4.03;;;;;;;;;;622221;23;1247;-76
2023/07/17 01:19:15;;;;;;;7.00;4.35;;;;;;;;;;622346;23;1117;-77
2023/07/17 01:19:34;;;;;;;6.80;4.30;;;;;;;;;;621249;23;1216;-77
2023/07/17 01:19:49;;;;;;;5.93;4.10;;;;;;;;;;621548;23;1254;-77
2023/07/17 01:20:10;;;;;;;6.57;4.30;;;;;;;;;;621769;23;985;-77
2023/07/17 01:20:25;;;;;;;5.45;3.95;;;;;;;;;;623438;23;1362;-76
2023/07/17 01:20:41;;;;;;;5.85;3.83;;;;;;;;;;626248;23;1283;-76
2023/07/17 01:20:57;;;;;;;6.97;4.10;;;;;;;;;;627798;23;1960;-77
2023/07/17 01:21:16;;;;;;;7.43;4.13;;;;;;;;;;627245;23;1260;-77
2023/07/17 01:21:35;;;;;;;5.85;4.13;;;;;;;;;;629885;23;1568;-77
2023/07/17 01:21:58;;;;;;;6.50;4.30;;;;;;;;;;629050;23;1239;-77
2023/07/17 01:22:22;;;;;;;6.00;3.72;;;;;;;;;;628347;23;1361;-77
2023/07/17 01:23:06;;;;;;;6.15;3.90;;;;;;;;;;627886;23;1255;-76
2023/07/17 01:23:21;;;;;;;5.40;4.00;;;;;;;;;;622508;23;918;-76
2023/07/17 01:23:40;;;;;;;5.78;3.90;;;;;;;;;;620231;23;1408;-76
2023/07/17 01:23:56;;;;;;;5.65;3.90;;;;;;;;;;619668;23;1355;-76
2023/07/17 01:24:12;;;;;;;6.50;4.00;;;;;;;;;;616106;23;1229;-77
2023/07/17 01:24:27;;;;;;;7.05;4.07;;;;;;;;;;613003;23;1312;-76
2023/07/17 01:24:43;;;;;;;6.03;4.10;;;;;;;;;;614010;23;978;-76
2023/07/17 01:24:58;;;;;;;6.75;4.20;;;;;;;;;;610454;23;1339;-77
2023/07/17 01:25:13;;;;;;;6.23;4.17;;;;;;;;;;609830;23;938;-77
2023/07/17 01:25:29;;;;;;;5.45;4.10;;;;;;;;;;610846;23;1206;-77
2023/07/17 01:25:45;;;;;;;5.43;4.20;;;;;;;;;;612146;23;1203;-76
2023/07/17 01:26:18;;;;;;;5.32;4.20;;;;;;;;;;612625;23;1399;-77
2023/07/17 01:26:33;;;;;;;7.00;4.35;;;;;;;;;;617595;23;844;-77
2023/07/17 01:26:49;;;;;;;6.60;4.27;;;;;;;;;;615278;23;1332;-76
2023/07/17 01:27:04;;;;;;;5.78;4.10;;;;;;;;;;618060;23;1129;-77
2023/07/17 01:27:20;;;;;;;5.70;4.13;;;;;;;;;;615558;23;1188;-77
2023/07/17 01:27:36;;;;;;;7.13;4.37;;;;;;;;;;620663;23;1152;-76
2023/07/17 01:27:56;;;;;;;7.70;4.30;;;;;;;;;;619609;23;1399;-77
2023/07/17 01:28:11;;;;;;;6.25;3.92;;;;;;;;;;618517;23;1656;-76
2023/07/17 01:28:27;;;;;;;6.50;4.10;;;;;;;;;;618695;23;1305;-76
2023/07/17 01:28:43;;;;;;;6.03;4.03;;;;;;;;;;617365;23;1027;-77
2023/07/17 01:28:59;;;;;;;5.45;3.92;;;;;;;;;;613717;23;1427;-76
2023/07/17 01:29:14;;;;;;;5.27;4.03;;;;;;;;;;616439;23;1248;-77
2023/07/17 01:29:30;;;;;;;5.67;4.30;;;;;;;;;;615780;23;1245;-76
2023/07/17 01:29:45;;;;;;;6.78;4.40;;;;;;;;;;619123;23;1197;-77
2023/07/17 01:30:01;;;;;;;6.50;4.20;;;;;;;;;;619429;23;1425;-76
2023/07/17 01:30:16;;;;;;;5.70;4.20;;;;;;;;;;617866;23;817;-77
2023/07/17 01:30:31;;;;;;;6.93;4.30;;;;;;;;;;618815;23;812;-77
2023/07/17 01:30:47;;;;;;;6.80;4.00;;;;;;;;;;615622;23;1152;-76
2023/07/17 01:31:03;;;;;;;6.38;3.90;;;;;;;;;;613828;23;1331;-76
2023/07/17 01:31:18;;;;;;;6.28;4.25;;;;;;;;;;612783;23;1232;-77
2023/07/17 01:31:34;;;;;;;5.57;4.27;;;;;;;;;;611671;23;1337;-77
2023/07/17 01:31:50;;;;;;;5.65;4.13;;;;;;;;;;615293;23;1264;-77
2023/07/17 01:32:06;;;;;;;6.23;4.30;;;;;;;;;;615900;23;1227;-77
2023/07/17 01:32:21;;;;;;;7.03;4.28;;;;;;;;;;617490;23;1322;-77
2023/07/17 01:32:36;;;;;;;6.70;4.00;;;;;;;;;;618214;23;1363;-77
2023/07/17 01:32:52;;;;;;;6.03;4.13;;;;;;;;;;618905;23;1071;-77
2023/07/17 01:33:08;;;;;;;6.38;4.20;;;;;;;;;;618657;23;1142;-76
2023/07/17 01:33:24;;;;;;;6.25;4.15;;;;;;;;;;618692;23;926;-76
2023/07/17 01:33:39;;;;;;;7.10;4.50;;;;;;;;;;619004;23;1101;-76
2023/07/17 01:33:55;;;;;;;6.93;4.50;;;;;;;;;;620116;23;824;-77
2023/07/17 01:34:12;;;;;;;7.72;4.35;;;;;;;;;;619216;23;1343;-77
2023/07/17 01:34:31;;;;;;;8.00;4.50;;;;;;;;;;620971;23;994;-76
2023/07/17 01:34:46;;;;;;;6.07;4.57;;;;;;;;;;620546;23;1486;-77
2023/07/17 01:35:03;;;;;;;5.57;4.40;;;;;;;;;;621151;23;993;-76
2023/07/17 01:35:18;;;;;;;7.53;4.40;;;;;;;;;;618227;23;894;-76
2023/07/17 01:35:34;;;;;;;7.60;4.67;;;;;;;;;;615486;23;1094;-77
2023/07/17 01:35:49;;;;;;;6.88;4.60;;;;;;;;;;615075;23;1294;-76
2023/07/17 01:36:06;;;;;;;8.57;4.50;;;;;;;;;;617380;23;1440;-76
2023/07/17 01:36:21;;;;;;;8.60;4.60;;;;;;;;;;619074;23;892;-77
2023/07/17 01:36:36;;;;;;;7.53;4.63;;;;;;;;;;617029;23;1190;-76
2023/07/17 01:36:52;;;;;;;7.73;4.70;;;;;;;;;;617091;23;1327;-76
2023/07/17 01:37:08;;;;;;;6.57;4.35;;;;;;;;;;613279;23;1280;-76
2023/07/17 01:37:23;;;;;;;5.97;4.30;;;;;;;;;;612489;23;1102;-76
2023/07/17 01:37:39;;;;;;;7.22;4.35;;;;;;;;;;614021;23;1225;-76
2023/07/17 01:37:54;;;;;;;7.87;4.30;;;;;;;;;;612515;23;1269;-77
2023/07/17 01:38:10;;;;;;;7.20;4.53;;;;;;;;;;612478;23;1166;-77
2023/07/17 01:38:25;;;;;;;5.65;4.30;;;;;;;;;;613900;23;860;-76
2023/07/17 01:38:41;;;;;;;4.97;3.93;;;;;;;;;;609915;23;1064;-76
2023/07/17 01:38:59;;;;;;;5.80;4.15;;;;;;;;;;609947;23;1091;-76
2023/07/17 01:39:14;;;;;;;5.60;4.15;;;;;;;;;;610796;23;872;-76
2023/07/17 01:39:30;;;;;;;6.10;4.23;;;;;;;;;;612584;23;801;-77
2023/07/17 01:39:45;;;;;;;5.80;4.20;;;;;;;;;;611046;23;1163;-77
2023/07/17 01:40:01;;;;;;;6.83;4.30;;;;;;;;;;615818;23;762;-77
2023/07/17 01:40:17;;;;;;;7.88;4.47;;;;;;;;;;615494;23;1244;-77
2023/07/17 01:40:32;;;;;;;7.15;4.32;;;;;;;;;;616223;23;1116;-76
2023/07/17 01:40:47;;;;;;;6.43;4.20;;;;;;;;;;615780;23;1288;-77
2023/07/17 01:41:02;;;;;;;6.53;4.23;;;;;;;;;;616478;23;1975;-76
2023/07/17 01:41:18;;;;;;;6.50;4.40;;;;;;;;;;614951;23;840;-77
2023/07/17 01:41:34;;;;;;;5.70;4.28;;;;;;;;;;617460;23;1101;-76
2023/07/17 01:41:49;;;;;;;5.85;4.20;;;;;;;;;;616584;23;1090;-76
2023/07/17 01:42:07;;;;;;;6.63;4.40;;;;;;;;;;616678;23;1414;-76
2023/07/17 01:42:22;;;;;;;6.30;4.32;;;;;;;;;;615512;23;995;-77
2023/07/17 01:42:37;;;;;;;5.13;4.00;;;;;;;;;;612549;23;1278;-76
2023/07/17 01:42:53;;;;;;;6.07;4.10;;;;;;;;;;613905;23;836;-77
2023/07/17 01:43:08;;;;;;;7.22;4.55;;;;;;;;;;616049;23;1323;-77
2023/07/17 01:43:24;;;;;;;6.57;4.33;;;;;;;;;;618532;23;1189;-77
2023/07/17 01:43:39;;;;;;;7.63;3.92;;;;;;;;;;617225;23;1264;-77